createdAt,value
2023-10-19T00:05:33.001Z,3.64
2023-10-19T00:11:25.887Z,3.63
2023-10-19T00:17:27.768Z,3.68
2023-10-19T00:22:58.582Z,3.72
2023-10-19T00:29:00.607Z,3.69
2023-10-19T00:35:22.489Z,3.62
2023-10-19T00:41:53.249Z,3.55
2023-10-19T00:48:15.199Z,3.54
2023-10-19T00:54:48.407Z,3.55
2023-10-19T01:01:10.397Z,3.52
2023-10-19T01:07:28.543Z,3.50
2023-10-19T01:13:50.757Z,3.49
2023-10-19T01:20:12.531Z,3.51
2023-10-19T01:25:57.092Z,3.49
2023-10-19T01:32:19.098Z,3.43
2023-10-19T01:38:40.968Z,3.37
2023-10-19T01:45:02.722Z,3.31
2023-10-19T01:50:24.841Z,3.24
2023-10-19T01:55:28.493Z,3.14
2023-10-19T02:00:31.346Z,3.02
2023-10-19T02:06:49.820Z,2.93
2023-10-19T02:13:14.701Z,2.90
2023-10-19T02:19:36.598Z,2.93
2023-10-19T02:25:58.432Z,2.92
2023-10-19T02:32:20.285Z,2.83
2023-10-19T02:38:42.045Z,2.77
2023-10-19T02:44:19.575Z,2.70
2023-10-19T02:50:21.519Z,2.65
2023-10-19T02:55:43.575Z,2.62
2023-10-19T03:00:47.369Z,2.62
2023-10-19T03:05:49.436Z,2.63
2023-10-19T03:11:05.256Z,2.63
2023-10-19T03:16:10.386Z,2.61
2023-10-19T03:22:12.212Z,2.57
2023-10-19T03:28:34.219Z,2.55
2023-10-19T03:34:56.097Z,2.61
2023-10-19T03:40:27.022Z,2.64
2023-10-19T03:45:34.914Z,2.69
2023-10-19T03:50:38.305Z,2.80
2023-10-19T03:55:40.434Z,2.92
2023-10-19T04:00:43.070Z,3.00
2023-10-19T04:06:45.070Z,3.06
2023-10-19T04:12:07.745Z,3.19
2023-10-19T04:17:13.542Z,3.34
2023-10-19T04:22:23.972Z,3.48
2023-10-19T04:27:28.485Z,3.59
2023-10-19T04:32:31.907Z,3.68
2023-10-19T04:37:34.116Z,3.79
2023-10-19T04:43:35.986Z,3.92
2023-10-19T04:49:57.864Z,4.04
2023-10-19T04:56:19.631Z,4.12
2023-10-19T05:02:41.650Z,4.19
2023-10-19T05:09:03.754Z,4.22
2023-10-19T05:14:25.876Z,4.33
2023-10-19T05:19:28.163Z,4.41
2023-10-19T05:24:31.474Z,4.51
2023-10-19T05:30:33.529Z,4.59
2023-10-19T05:35:56.082Z,4.68
2023-10-19T05:41:57.990Z,4.77
2023-10-19T05:48:19.754Z,4.91
2023-10-19T05:54:41.573Z,5.02
2023-10-19T06:01:03.418Z,5.15
2023-10-19T06:06:26.126Z,5.35
2023-10-19T06:11:33.681Z,5.52
2023-10-19T06:16:36.065Z,5.66
2023-10-19T06:21:38.334Z,5.71
2023-10-19T06:26:40.385Z,5.77
2023-10-19T06:31:42.546Z,5.83
2023-10-19T06:37:44.567Z,5.89
2023-10-19T06:44:06.569Z,6.02
2023-10-19T06:50:28.338Z,6.17
2023-10-19T06:56:50.066Z,6.36
2023-10-19T07:02:14.473Z,6.53
2023-10-19T07:08:16.386Z,6.66
2023-10-19T07:14:38.221Z,6.79
2023-10-19T07:21:00.019Z,6.95
2023-10-19T07:26:24.121Z,7.11
2023-10-19T07:31:28.802Z,7.28
2023-10-19T07:36:32.500Z,7.41
2023-10-19T07:41:37.284Z,7.51
2023-10-19T07:46:39.482Z,7.68
2023-10-19T07:52:47.620Z,7.87
2023-10-19T07:58:09.957Z,8.10
2023-10-19T08:03:14.978Z,8.17
2023-10-19T08:08:17.406Z,8.18
2023-10-19T08:13:19.548Z,8.13
2023-10-19T08:18:22.321Z,8.24
2023-10-19T08:23:28.891Z,8.30
2023-10-19T08:28:31.587Z,8.26
2023-10-19T08:33:35.442Z,8.31
2023-10-19T08:38:37.791Z,8.40
2023-10-19T08:43:40.900Z,8.51
2023-10-19T08:48:43.548Z,8.52
2023-10-19T08:53:47.904Z,8.52
2023-10-19T08:58:50.323Z,8.66
2023-10-19T09:03:53.053Z,8.79
2023-10-19T09:08:55.465Z,9.02
2023-10-19T09:13:58.773Z,9.24
2023-10-19T09:19:00.910Z,9.36
2023-10-19T09:24:03.100Z,9.41
2023-10-19T09:30:04.968Z,9.45
2023-10-19T09:36:26.782Z,9.63
2023-10-19T09:42:48.657Z,9.65
2023-10-19T09:49:10.458Z,9.52
2023-10-19T09:54:45.807Z,9.49
2023-10-19T09:59:52.894Z,9.55
2023-10-19T10:04:55.174Z,9.69
2023-10-19T10:09:57.508Z,9.70
2023-10-19T10:14:59.848Z,9.64
2023-10-19T10:20:20.217Z,9.63
2023-10-19T10:25:29.304Z,9.75
2023-10-19T10:30:32.767Z,9.95
2023-10-19T10:35:38.189Z,10.12
2023-10-19T10:41:43.217Z,10.18
2023-10-19T10:48:05.112Z,10.28
2023-10-19T10:54:29.713Z,10.28
2023-10-19T11:01:10.277Z,10.26
2023-10-19T11:06:56.690Z,10.13
2023-10-19T11:11:58.850Z,10.11
2023-10-19T11:17:16.482Z,10.05
2023-10-19T11:22:18.596Z,9.90
2023-10-19T11:27:28.018Z,9.92
2023-10-19T11:32:39.570Z,9.96
2023-10-19T11:37:56.710Z,9.95
2023-10-19T11:42:59.976Z,10.07
2023-10-19T11:48:02.907Z,10.25
2023-10-19T11:53:07.048Z,10.30
2023-10-19T11:59:09.000Z,10.21
2023-10-19T12:04:31.669Z,10.24
2023-10-19T12:09:34.239Z,10.28
2023-10-19T12:14:40.002Z,10.36
2023-10-19T12:19:42.274Z,10.43
2023-10-19T12:24:45.738Z,10.51
2023-10-19T12:29:48.034Z,10.55
2023-10-19T12:34:59.111Z,10.65
2023-10-19T12:40:01.335Z,10.61
2023-10-19T12:45:04.192Z,10.71
2023-10-19T12:50:08.251Z,10.84
2023-10-19T12:55:10.817Z,10.91
2023-10-19T13:00:27.263Z,10.97
2023-10-19T13:05:33.061Z,10.99
2023-10-19T13:10:38.093Z,10.79
2023-10-19T13:15:41.699Z,10.48
2023-10-19T13:20:45.345Z,10.29
2023-10-19T13:25:51.614Z,10.14
2023-10-19T13:30:55.204Z,10.16
2023-10-19T13:35:57.279Z,10.13
2023-10-19T13:40:59.443Z,10.00
2023-10-19T13:46:02.945Z,9.90
2023-10-19T13:51:14.745Z,9.90
2023-10-19T13:56:17.776Z,9.94
2023-10-19T14:01:20.236Z,9.98
2023-10-19T14:06:23.730Z,10.09
2023-10-19T14:11:26.113Z,10.09
2023-10-19T14:16:28.620Z,10.14
2023-10-19T14:21:31.245Z,10.13
2023-10-19T14:26:33.352Z,10.29
2023-10-19T14:31:35.534Z,10.38
2023-10-19T14:36:42.945Z,10.39
2023-10-19T14:42:22.952Z,10.41
2023-10-19T14:47:27.950Z,10.34
2023-10-19T14:52:30.163Z,10.34
2023-10-19T14:57:34.612Z,10.28
2023-10-19T15:03:36.656Z,10.22
2023-10-19T15:09:58.628Z,10.23
2023-10-19T15:15:20.835Z,10.13
2023-10-19T15:20:28.549Z,10.10
2023-10-19T15:25:30.866Z,10.14
2023-10-19T15:30:33.114Z,10.14
2023-10-19T15:35:38.830Z,10.22
2023-10-19T15:40:41.676Z,10.27
2023-10-19T15:45:47.138Z,10.24
2023-10-19T15:50:49.516Z,10.18
2023-10-19T15:55:52.545Z,10.18
2023-10-19T16:01:02.636Z,10.17
2023-10-19T16:06:08.150Z,10.13
2023-10-19T16:11:10.400Z,10.11
2023-10-19T16:16:13.798Z,10.05
2023-10-19T16:21:15.872Z,10.00
2023-10-19T16:26:18.144Z,10.01
2023-10-19T16:31:26.912Z,9.99
2023-10-19T16:36:31.231Z,9.97
2023-10-19T16:41:33.494Z,9.99
2023-10-19T16:46:39.548Z,9.99
2023-10-19T16:51:42.036Z,9.97
2023-10-19T16:57:06.854Z,9.99
2023-10-19T17:02:11.419Z,10.04
2023-10-19T17:07:13.642Z,10.06
2023-10-19T17:12:15.790Z,10.02
2023-10-19T17:17:21.111Z,9.97
2023-10-19T17:22:23.521Z,9.92
2023-10-19T17:27:25.615Z,9.95
2023-10-19T17:32:29.042Z,9.94
2023-10-19T17:37:33.351Z,9.95
2023-10-19T17:42:47.570Z,9.97
2023-10-19T17:47:53.632Z,9.99
2023-10-19T17:52:55.975Z,10.01
2023-10-19T17:57:59.506Z,10.00
2023-10-19T18:03:13.177Z,9.96
2023-10-19T18:08:16.268Z,9.95
2023-10-19T18:13:18.870Z,10.01
2023-10-19T18:18:22.632Z,10.03
2023-10-19T18:23:25.675Z,9.93
2023-10-19T18:28:27.964Z,9.87
2023-10-19T18:33:35.062Z,9.91
2023-10-19T18:38:38.057Z,9.94
2023-10-19T18:43:40.312Z,9.90
2023-10-19T18:48:42.481Z,9.93
2023-10-19T18:53:45.560Z,10.00
2023-10-19T18:58:48.204Z,10.04
2023-10-19T19:03:51.793Z,10.02
2023-10-19T19:08:54.050Z,9.93
2023-10-19T19:13:56.220Z,9.95
2023-10-19T19:18:58.419Z,9.94
2023-10-19T19:24:00.556Z,9.88
2023-10-19T19:29:02.998Z,9.90
2023-10-19T19:34:05.099Z,10.04
2023-10-19T19:39:08.904Z,10.04
2023-10-19T19:44:11.292Z,10.01
2023-10-19T19:50:13.315Z,9.94
2023-10-19T19:56:35.165Z,9.84
2023-10-19T20:02:57.037Z,9.72
2023-10-19T20:09:28.900Z,9.71
2023-10-19T20:15:00.899Z,9.86
2023-10-19T20:21:02.726Z,9.98
2023-10-19T20:27:24.568Z,10.08
2023-10-19T20:33:46.276Z,10.23
2023-10-19T20:39:31.569Z,10.35
2023-10-19T20:44:43.121Z,10.37
2023-10-19T20:49:46.429Z,10.38
2023-10-19T20:54:48.669Z,10.39
2023-10-19T20:59:50.977Z,10.40
2023-10-19T21:05:55.288Z,10.29
2023-10-19T21:11:04.290Z,10.24
2023-10-19T21:16:09.440Z,10.27
2023-10-19T21:21:16.150Z,10.34
2023-10-19T21:26:18.427Z,10.39
2023-10-19T21:31:20.936Z,10.44
2023-10-19T21:36:23.208Z,10.48
2023-10-19T21:41:27.849Z,10.48
2023-10-19T21:46:31.785Z,10.49
2023-10-19T21:51:34.053Z,10.51
2023-10-19T21:56:36.257Z,10.62
2023-10-19T22:01:40.871Z,10.68
2023-10-19T22:07:42.870Z,10.68
2023-10-19T22:14:04.643Z,10.70
2023-10-19T22:20:26.537Z,10.70
2023-10-19T22:25:48.699Z,10.71
2023-10-19T22:31:50.516Z,10.72
2023-10-19T22:38:12.355Z,10.74
2023-10-19T22:44:34.388Z,10.71
2023-10-19T22:50:56.296Z,10.66
2023-10-19T22:56:18.364Z,10.57
2023-10-19T23:02:20.342Z,10.52
2023-10-19T23:08:42.212Z,10.49
2023-10-19T23:15:04.109Z,10.51
2023-10-19T23:21:25.917Z,10.53
2023-10-19T23:26:48.286Z,10.53
2023-10-19T23:31:53.152Z,10.53
2023-10-19T23:36:55.257Z,10.54
2023-10-19T23:41:57.307Z,10.53
2023-10-19T23:47:00.054Z,10.52
2023-10-19T23:52:02.341Z,10.53
2023-10-19T23:58:12.068Z,10.54
